sensor_id;sensor_type;location;lat;lon;timestamp;P1;durP1;ratioP1;P2;durP2;ratioP2
17372;SDS011;8803;48.116;11.590;2023-03-13T00:01:00;2.77;;;1.60;;
17372;SDS011;8803;48.116;11.590;2023-03-13T00:03:06;2.97;;;1.40;;
17372;SDS011;8803;48.116;11.590;2023-03-13T00:07:21;2.77;;;1.50;;
17372;SDS011;8803;48.116;11.590;2023-03-13T00:09:25;2.27;;;1.30;;
17372;SDS011;8803;48.116;11.590;2023-03-13T00:11:29;1.60;;;1.30;;
17372;SDS011;8803;48.116;11.590;2023-03-13T00:13:34;2.17;;;1.17;;
17372;SDS011;8803;48.116;11.590;2023-03-13T00:15:46;2.23;;;1.53;;
17372;SDS011;8803;48.116;11.590;2023-03-13T00:17:50;4.43;;;1.30;;
17372;SDS011;8803;48.116;11.590;2023-03-13T00:20:06;2.17;;;1.30;;
17372;SDS011;8803;48.116;11.590;2023-03-13T00:22:12;2.20;;;1.50;;
17372;SDS011;8803;48.116;11.590;2023-03-13T00:24:25;1.60;;;1.30;;
17372;SDS011;8803;48.116;11.590;2023-03-13T00:26:28;2.17;;;1.17;;
17372;SDS011;8803;48.116;11.590;2023-03-13T00:28:33;2.47;;;1.43;;
17372;SDS011;8803;48.116;11.590;2023-03-13T00:30:38;1.57;;;1.00;;
17372;SDS011;8803;48.116;11.590;2023-03-13T00:32:50;1.40;;;1.00;;
17372;SDS011;8803;48.116;11.590;2023-03-13T00:37:09;2.77;;;1.30;;
17372;SDS011;8803;48.116;11.590;2023-03-13T00:39:13;1.37;;;1.00;;
17372;SDS011;8803;48.116;11.590;2023-03-13T00:41:17;3.03;;;1.17;;
17372;SDS011;8803;48.116;11.590;2023-03-13T00:43:30;1.30;;;0.97;;
17372;SDS011;8803;48.116;11.590;2023-03-13T00:45:34;2.00;;;1.20;;
17372;SDS011;8803;48.116;11.590;2023-03-13T00:47:47;3.00;;;1.33;;
17372;SDS011;8803;48.116;11.590;2023-03-13T00:49:51;1.40;;;1.17;;
17372;SDS011;8803;48.116;11.590;2023-03-13T00:51:54;2.07;;;1.23;;
17372;SDS011;8803;48.116;11.590;2023-03-13T00:53:58;2.17;;;1.57;;
17372;SDS011;8803;48.116;11.590;2023-03-13T00:56:05;2.37;;;1.40;;
17372;SDS011;8803;48.116;11.590;2023-03-13T00:58:18;2.53;;;1.53;;
17372;SDS011;8803;48.116;11.590;2023-03-13T01:00:23;2.20;;;1.20;;
17372;SDS011;8803;48.116;11.590;2023-03-13T01:02:40;1.40;;;1.13;;
17372;SDS011;8803;48.116;11.590;2023-03-13T01:04:44;1.57;;;1.00;;
17372;SDS011;8803;48.116;11.590;2023-03-13T01:06:56;2.27;;;1.17;;
17372;SDS011;8803;48.116;11.590;2023-03-13T01:09:00;2.67;;;1.27;;
17372;SDS011;8803;48.116;11.590;2023-03-13T01:11:14;2.03;;;1.30;;
17372;SDS011;8803;48.116;11.590;2023-03-13T01:13:19;1.70;;;1.20;;
17372;SDS011;8803;48.116;11.590;2023-03-13T01:15:23;4.77;;;1.43;;
17372;SDS011;8803;48.116;11.590;2023-03-13T01:17:36;1.40;;;1.23;;
17372;SDS011;8803;48.116;11.590;2023-03-13T01:19:40;2.57;;;0.90;;
17372;SDS011;8803;48.116;11.590;2023-03-13T01:21:44;2.20;;;1.27;;
17372;SDS011;8803;48.116;11.590;2023-03-13T01:23:48;1.10;;;0.93;;
17372;SDS011;8803;48.116;11.590;2023-03-13T01:26:02;2.43;;;1.17;;
17372;SDS011;8803;48.116;11.590;2023-03-13T01:28:07;1.53;;;1.10;;
17372;SDS011;8803;48.116;11.590;2023-03-13T01:30:11;1.87;;;0.93;;
17372;SDS011;8803;48.116;11.590;2023-03-13T01:32:24;1.57;;;1.10;;
17372;SDS011;8803;48.116;11.590;2023-03-13T01:34:28;3.63;;;1.33;;
17372;SDS011;8803;48.116;11.590;2023-03-13T01:36:40;1.83;;;1.00;;
17372;SDS011;8803;48.116;11.590;2023-03-13T01:38:47;1.10;;;1.00;;
17372;SDS011;8803;48.116;11.590;2023-03-13T01:40:51;1.37;;;0.83;;
17372;SDS011;8803;48.116;11.590;2023-03-13T01:42:56;2.13;;;0.80;;
17372;SDS011;8803;48.116;11.590;2023-03-13T01:45:01;1.00;;;0.80;;
17372;SDS011;8803;48.116;11.590;2023-03-13T01:47:14;1.13;;;0.87;;
17372;SDS011;8803;48.116;11.590;2023-03-13T01:49:18;2.20;;;1.10;;
17372;SDS011;8803;48.116;11.590;2023-03-13T01:51:33;2.27;;;0.73;;
17372;SDS011;8803;48.116;11.590;2023-03-13T01:53:40;0.70;;;0.60;;
17372;SDS011;8803;48.116;11.590;2023-03-13T01:55:53;1.70;;;0.90;;
17372;SDS011;8803;48.116;11.590;2023-03-13T01:57:58;1.37;;;1.00;;
17372;SDS011;8803;48.116;11.590;2023-03-13T02:00:04;1.10;;;0.77;;
17372;SDS011;8803;48.116;11.590;2023-03-13T02:02:10;2.93;;;1.80;;
17372;SDS011;8803;48.116;11.590;2023-03-13T02:04:17;2.87;;;1.67;;
17372;SDS011;8803;48.116;11.590;2023-03-13T02:06:37;1.90;;;1.20;;
17372;SDS011;8803;48.116;11.590;2023-03-13T02:08:44;1.97;;;0.97;;
17372;SDS011;8803;48.116;11.590;2023-03-13T02:10:53;1.50;;;1.00;;
17372;SDS011;8803;48.116;11.590;2023-03-13T02:12:59;0.83;;;0.77;;
17372;SDS011;8803;48.116;11.590;2023-03-13T02:15:05;0.63;;;0.63;;
17372;SDS011;8803;48.116;11.590;2023-03-13T02:17:20;2.37;;;1.00;;
17372;SDS011;8803;48.116;11.590;2023-03-13T02:19:27;1.27;;;1.00;;
17372;SDS011;8803;48.116;11.590;2023-03-13T02:21:38;1.53;;;0.90;;
17372;SDS011;8803;48.116;11.590;2023-03-13T02:23:46;1.63;;;0.77;;
17372;SDS011;8803;48.116;11.590;2023-03-13T02:25:52;1.10;;;0.77;;
17372;SDS011;8803;48.116;11.590;2023-03-13T02:28:06;2.33;;;0.90;;
17372;SDS011;8803;48.116;11.590;2023-03-13T02:30:13;1.37;;;0.90;;
17372;SDS011;8803;48.116;11.590;2023-03-13T02:32:17;1.60;;;0.67;;
17372;SDS011;8803;48.116;11.590;2023-03-13T02:34:31;1.53;;;1.07;;
17372;SDS011;8803;48.116;11.590;2023-03-13T02:36:36;1.90;;;0.90;;
17372;SDS011;8803;48.116;11.590;2023-03-13T02:38:50;1.33;;;1.10;;
17372;SDS011;8803;48.116;11.590;2023-03-13T02:40:56;1.30;;;1.20;;
17372;SDS011;8803;48.116;11.590;2023-03-13T02:43:03;1.57;;;0.90;;
17372;SDS011;8803;48.116;11.590;2023-03-13T02:45:12;0.80;;;0.80;;
17372;SDS011;8803;48.116;11.590;2023-03-13T02:47:19;1.20;;;1.07;;
17372;SDS011;8803;48.116;11.590;2023-03-13T02:49:32;1.00;;;0.77;;
17372;SDS011;8803;48.116;11.590;2023-03-13T02:51:37;1.97;;;1.00;;
17372;SDS011;8803;48.116;11.590;2023-03-13T02:53:42;1.00;;;0.53;;
17372;SDS011;8803;48.116;11.590;2023-03-13T02:55:56;1.00;;;0.70;;
17372;SDS011;8803;48.116;11.590;2023-03-13T02:58:00;1.50;;;0.90;;
17372;SDS011;8803;48.116;11.590;2023-03-13T03:00:05;1.27;;;0.80;;
17372;SDS011;8803;48.116;11.590;2023-03-13T03:02:12;1.13;;;0.90;;
17372;SDS011;8803;48.116;11.590;2023-03-13T03:04:25;0.90;;;0.70;;
17372;SDS011;8803;48.116;11.590;2023-03-13T03:06:29;1.53;;;0.73;;
17372;SDS011;8803;48.116;11.590;2023-03-13T03:08:45;1.43;;;0.80;;
17372;SDS011;8803;48.116;11.590;2023-03-13T03:10:49;0.87;;;0.80;;
17372;SDS011;8803;48.116;11.590;2023-03-13T03:12:53;2.03;;;0.70;;
17372;SDS011;8803;48.116;11.590;2023-03-13T03:17:08;1.27;;;0.90;;
17372;SDS011;8803;48.116;11.590;2023-03-13T03:19:12;0.90;;;0.80;;
17372;SDS011;8803;48.116;11.590;2023-03-13T03:21:15;1.03;;;0.70;;
17372;SDS011;8803;48.116;11.590;2023-03-13T03:23:21;0.63;;;0.60;;
17372;SDS011;8803;48.116;11.590;2023-03-13T03:25:24;0.80;;;0.80;;
17372;SDS011;8803;48.116;11.590;2023-03-13T03:27:37;1.80;;;0.90;;
17372;SDS011;8803;48.116;11.590;2023-03-13T03:29:41;1.23;;;0.70;;
17372;SDS011;8803;48.116;11.590;2023-03-13T03:31:45;0.70;;;0.70;;
17372;SDS011;8803;48.116;11.590;2023-03-13T03:33:48;1.63;;;1.00;;
17372;SDS011;8803;48.116;11.590;2023-03-13T03:36:04;1.03;;;0.60;;
17372;SDS011;8803;48.116;11.590;2023-03-13T03:38:10;0.90;;;0.80;;
17372;SDS011;8803;48.116;11.590;2023-03-13T03:40:14;0.60;;;0.60;;
17372;SDS011;8803;48.116;11.590;2023-03-13T03:42:17;0.83;;;0.70;;
17372;SDS011;8803;48.116;11.590;2023-03-13T03:44:21;0.60;;;0.60;;
17372;SDS011;8803;48.116;11.590;2023-03-13T03:46:34;1.00;;;0.80;;
17372;SDS011;8803;48.116;11.590;2023-03-13T03:48:38;0.87;;;0.53;;
17372;SDS011;8803;48.116;11.590;2023-03-13T03:50:42;1.03;;;0.70;;
17372;SDS011;8803;48.116;11.590;2023-03-13T03:52:46;0.80;;;0.60;;
17372;SDS011;8803;48.116;11.590;2023-03-13T03:54:51;0.70;;;0.57;;
17372;SDS011;8803;48.116;11.590;2023-03-13T03:56:55;0.70;;;0.70;;
17372;SDS011;8803;48.116;11.590;2023-03-13T03:59:07;0.60;;;0.50;;
17372;SDS011;8803;48.116;11.590;2023-03-13T04:01:12;1.00;;;0.70;;
17372;SDS011;8803;48.116;11.590;2023-03-13T04:03:24;0.90;;;0.67;;
17372;SDS011;8803;48.116;11.590;2023-03-13T04:05:28;0.70;;;0.60;;
17372;SDS011;8803;48.116;11.590;2023-03-13T04:07:41;1.00;;;0.80;;
17372;SDS011;8803;48.116;11.590;2023-03-13T04:09:45;0.50;;;0.50;;
17372;SDS011;8803;48.116;11.590;2023-03-13T04:11:57;0.83;;;0.60;;
17372;SDS011;8803;48.116;11.590;2023-03-13T04:14:01;1.23;;;0.70;;
17372;SDS011;8803;48.116;11.590;2023-03-13T04:16:14;0.50;;;0.50;;
17372;SDS011;8803;48.116;11.590;2023-03-13T04:18:17;0.90;;;0.60;;
17372;SDS011;8803;48.116;11.590;2023-03-13T04:20:21;0.83;;;0.70;;
17372;SDS011;8803;48.116;11.590;2023-03-13T04:22:25;0.87;;;0.60;;
17372;SDS011;8803;48.116;11.590;2023-03-13T04:24:29;0.70;;;0.63;;
17372;SDS011;8803;48.116;11.590;2023-03-13T04:26:41;1.17;;;0.60;;
17372;SDS011;8803;48.116;11.590;2023-03-13T04:28:45;0.50;;;0.50;;
17372;SDS011;8803;48.116;11.590;2023-03-13T04:30:49;0.77;;;0.60;;
17372;SDS011;8803;48.116;11.590;2023-03-13T04:33:02;0.57;;;0.53;;
17372;SDS011;8803;48.116;11.590;2023-03-13T04:35:06;0.60;;;0.60;;
17372;SDS011;8803;48.116;11.590;2023-03-13T04:37:19;1.07;;;0.70;;
17372;SDS011;8803;48.116;11.590;2023-03-13T04:39:23;1.13;;;1.00;;
17372;SDS011;8803;48.116;11.590;2023-03-13T04:41:27;1.83;;;1.10;;
17372;SDS011;8803;48.116;11.590;2023-03-13T04:43:30;1.03;;;0.77;;
17372;SDS011;8803;48.116;11.590;2023-03-13T04:45:43;0.80;;;0.70;;
17372;SDS011;8803;48.116;11.590;2023-03-13T04:47:47;1.03;;;0.83;;
17372;SDS011;8803;48.116;11.590;2023-03-13T04:49:51;0.87;;;0.77;;
17372;SDS011;8803;48.116;11.590;2023-03-13T04:51:54;0.97;;;0.90;;
17372;SDS011;8803;48.116;11.590;2023-03-13T04:53:58;0.70;;;0.70;;
17372;SDS011;8803;48.116;11.590;2023-03-13T04:56:11;0.53;;;0.50;;
17372;SDS011;8803;48.116;11.590;2023-03-13T04:58:18;1.23;;;0.83;;
17372;SDS011;8803;48.116;11.590;2023-03-13T05:00:22;1.13;;;1.00;;
17372;SDS011;8803;48.116;11.590;2023-03-13T05:02:26;1.03;;;0.90;;
17372;SDS011;8803;48.116;11.590;2023-03-13T05:04:30;0.83;;;0.80;;
17372;SDS011;8803;48.116;11.590;2023-03-13T05:06:42;1.27;;;0.90;;
17372;SDS011;8803;48.116;11.590;2023-03-13T05:08:46;1.00;;;0.60;;
17372;SDS011;8803;48.116;11.590;2023-03-13T05:11:00;1.47;;;1.07;;
17372;SDS011;8803;48.116;11.590;2023-03-13T05:13:04;1.10;;;0.83;;
17372;SDS011;8803;48.116;11.590;2023-03-13T05:15:08;0.70;;;0.70;;
17372;SDS011;8803;48.116;11.590;2023-03-13T05:17:21;3.13;;;0.90;;
17372;SDS011;8803;48.116;11.590;2023-03-13T05:19:25;1.00;;;0.60;;
17372;SDS011;8803;48.116;11.590;2023-03-13T05:21:41;1.73;;;0.80;;
17372;SDS011;8803;48.116;11.590;2023-03-13T05:23:45;0.70;;;0.70;;
17372;SDS011;8803;48.116;11.590;2023-03-13T05:25:57;0.77;;;0.73;;
17372;SDS011;8803;48.116;11.590;2023-03-13T05:28:01;0.70;;;0.70;;
17372;SDS011;8803;48.116;11.590;2023-03-13T05:30:14;1.00;;;0.90;;
17372;SDS011;8803;48.116;11.590;2023-03-13T05:32:19;0.80;;;0.70;;
17372;SDS011;8803;48.116;11.590;2023-03-13T05:34:23;1.63;;;0.70;;
17372;SDS011;8803;48.116;11.590;2023-03-13T05:36:35;0.60;;;0.60;;
17372;SDS011;8803;48.116;11.590;2023-03-13T05:38:39;1.30;;;0.80;;
17372;SDS011;8803;48.116;11.590;2023-03-13T05:40:43;1.83;;;1.00;;
17372;SDS011;8803;48.116;11.590;2023-03-13T05:42:46;3.13;;;0.80;;
17372;SDS011;8803;48.116;11.590;2023-03-13T05:44:59;1.30;;;0.83;;
17372;SDS011;8803;48.116;11.590;2023-03-13T05:47:03;0.77;;;0.73;;
17372;SDS011;8803;48.116;11.590;2023-03-13T05:51:19;1.30;;;0.73;;
17372;SDS011;8803;48.116;11.590;2023-03-13T05:53:23;0.90;;;0.70;;
17372;SDS011;8803;48.116;11.590;2023-03-13T05:57:38;0.97;;;0.70;;
17372;SDS011;8803;48.116;11.590;2023-03-13T05:59:44;1.37;;;0.93;;
17372;SDS011;8803;48.116;11.590;2023-03-13T06:01:48;1.00;;;0.70;;
17372;SDS011;8803;48.116;11.590;2023-03-13T06:04:02;0.70;;;0.70;;
17372;SDS011;8803;48.116;11.590;2023-03-13T06:06:06;1.07;;;0.80;;
17372;SDS011;8803;48.116;11.590;2023-03-13T06:08:18;0.70;;;0.70;;
17372;SDS011;8803;48.116;11.590;2023-03-13T06:10:22;1.00;;;0.80;;
17372;SDS011;8803;48.116;11.590;2023-03-13T06:12:26;1.57;;;0.90;;
17372;SDS011;8803;48.116;11.590;2023-03-13T06:14:30;2.30;;;1.70;;
17372;SDS011;8803;48.116;11.590;2023-03-13T06:16:45;3.40;;;2.03;;
17372;SDS011;8803;48.116;11.590;2023-03-13T06:18:49;2.00;;;1.50;;
17372;SDS011;8803;48.116;11.590;2023-03-13T06:20:55;1.47;;;1.17;;
17372;SDS011;8803;48.116;11.590;2023-03-13T06:23:01;1.10;;;1.00;;
17372;SDS011;8803;48.116;11.590;2023-03-13T06:25:14;1.07;;;0.97;;
17372;SDS011;8803;48.116;11.590;2023-03-13T06:29:30;4.07;;;1.70;;
17372;SDS011;8803;48.116;11.590;2023-03-13T06:31:34;1.80;;;1.53;;
17372;SDS011;8803;48.116;11.590;2023-03-13T06:35:49;1.60;;;1.20;;
17372;SDS011;8803;48.116;11.590;2023-03-13T06:37:53;3.03;;;1.00;;
17372;SDS011;8803;48.116;11.590;2023-03-13T06:39:57;1.50;;;1.10;;
17372;SDS011;8803;48.116;11.590;2023-03-13T06:42:01;1.90;;;1.53;;
17372;SDS011;8803;48.116;11.590;2023-03-13T06:44:06;4.07;;;2.27;;
17372;SDS011;8803;48.116;11.590;2023-03-13T06:46:19;1.97;;;1.60;;
17372;SDS011;8803;48.116;11.590;2023-03-13T06:48:24;2.47;;;1.50;;
17372;SDS011;8803;48.116;11.590;2023-03-13T06:50:28;1.17;;;1.00;;
17372;SDS011;8803;48.116;11.590;2023-03-13T06:52:32;2.67;;;1.97;;
17372;SDS011;8803;48.116;11.590;2023-03-13T06:54:37;2.37;;;1.83;;
17372;SDS011;8803;48.116;11.590;2023-03-13T06:56:51;1.40;;;1.30;;
17372;SDS011;8803;48.116;11.590;2023-03-13T06:58:54;1.27;;;1.10;;
17372;SDS011;8803;48.116;11.590;2023-03-13T07:00:59;1.77;;;1.00;;
17372;SDS011;8803;48.116;11.590;2023-03-13T07:03:04;1.07;;;1.00;;
17372;SDS011;8803;48.116;11.590;2023-03-13T07:05:17;1.00;;;0.80;;
17372;SDS011;8803;48.116;11.590;2023-03-13T07:07:20;1.40;;;0.80;;
17372;SDS011;8803;48.116;11.590;2023-03-13T07:09:33;1.07;;;0.97;;
17372;SDS011;8803;48.116;11.590;2023-03-13T07:11:37;1.10;;;1.00;;
17372;SDS011;8803;48.116;11.590;2023-03-13T07:13:40;1.20;;;0.90;;
17372;SDS011;8803;48.116;11.590;2023-03-13T07:15:53;1.20;;;0.93;;
17372;SDS011;8803;48.116;11.590;2023-03-13T07:17:57;1.23;;;0.77;;
17372;SDS011;8803;48.116;11.590;2023-03-13T07:20:01;2.23;;;1.33;;
17372;SDS011;8803;48.116;11.590;2023-03-13T07:22:06;2.03;;;1.30;;
17372;SDS011;8803;48.116;11.590;2023-03-13T07:24:19;2.17;;;1.27;;
17372;SDS011;8803;48.116;11.590;2023-03-13T07:26:23;1.30;;;1.07;;
17372;SDS011;8803;48.116;11.590;2023-03-13T07:28:37;1.30;;;1.10;;
17372;SDS011;8803;48.116;11.590;2023-03-13T07:30:41;1.27;;;0.80;;
17372;SDS011;8803;48.116;11.590;2023-03-13T07:32:45;1.37;;;1.10;;
17372;SDS011;8803;48.116;11.590;2023-03-13T07:37:00;0.87;;;0.70;;
17372;SDS011;8803;48.116;11.590;2023-03-13T07:41:16;1.93;;;0.90;;
17372;SDS011;8803;48.116;11.590;2023-03-13T07:43:20;1.63;;;0.90;;
17372;SDS011;8803;48.116;11.590;2023-03-13T07:45:24;2.00;;;1.20;;
17372;SDS011;8803;48.116;11.590;2023-03-13T07:47:40;1.50;;;1.10;;
17372;SDS011;8803;48.116;11.590;2023-03-13T07:49:44;3.47;;;1.73;;
17372;SDS011;8803;48.116;11.590;2023-03-13T07:51:47;1.77;;;1.30;;
17372;SDS011;8803;48.116;11.590;2023-03-13T07:53:51;1.67;;;1.10;;
17372;SDS011;8803;48.116;11.590;2023-03-13T07:56:05;1.77;;;1.30;;
17372;SDS011;8803;48.116;11.590;2023-03-13T07:58:11;1.50;;;1.10;;
17372;SDS011;8803;48.116;11.590;2023-03-13T08:00:16;1.70;;;1.20;;
17372;SDS011;8803;48.116;11.590;2023-03-13T08:02:21;2.70;;;1.10;;
17372;SDS011;8803;48.116;11.590;2023-03-13T08:04:33;0.90;;;0.90;;
17372;SDS011;8803;48.116;11.590;2023-03-13T08:08:49;1.60;;;1.10;;
17372;SDS011;8803;48.116;11.590;2023-03-13T08:10:57;2.13;;;1.37;;
17372;SDS011;8803;48.116;11.590;2023-03-13T08:13:03;2.27;;;1.80;;
17372;SDS011;8803;48.116;11.590;2023-03-13T08:15:08;1.97;;;1.77;;
17372;SDS011;8803;48.116;11.590;2023-03-13T08:17:12;1.53;;;1.30;;
17372;SDS011;8803;48.116;11.590;2023-03-13T08:19:25;1.90;;;1.10;;
17372;SDS011;8803;48.116;11.590;2023-03-13T08:21:29;2.67;;;1.00;;
17372;SDS011;8803;48.116;11.590;2023-03-13T08:23:35;1.23;;;0.97;;
17372;SDS011;8803;48.116;11.590;2023-03-13T08:25:39;1.13;;;1.00;;
17372;SDS011;8803;48.116;11.590;2023-03-13T08:27:51;1.60;;;0.90;;
17372;SDS011;8803;48.116;11.590;2023-03-13T08:29:56;1.77;;;1.20;;
17372;SDS011;8803;48.116;11.590;2023-03-13T08:32:00;1.00;;;0.87;;
17372;SDS011;8803;48.116;11.590;2023-03-13T08:34:03;1.50;;;1.20;;
17372;SDS011;8803;48.116;11.590;2023-03-13T08:36:17;1.10;;;0.73;;
17372;SDS011;8803;48.116;11.590;2023-03-13T08:38:23;1.13;;;0.83;;
17372;SDS011;8803;48.116;11.590;2023-03-13T08:40:27;1.33;;;0.97;;
17372;SDS011;8803;48.116;11.590;2023-03-13T08:42:30;1.47;;;1.03;;
17372;SDS011;8803;48.116;11.590;2023-03-13T08:44:34;3.10;;;1.10;;
17372;SDS011;8803;48.116;11.590;2023-03-13T08:46:47;2.23;;;1.10;;
17372;SDS011;8803;48.116;11.590;2023-03-13T08:48:52;2.17;;;0.90;;
17372;SDS011;8803;48.116;11.590;2023-03-13T08:51:00;2.10;;;1.10;;
17372;SDS011;8803;48.116;11.590;2023-03-13T08:53:05;1.70;;;1.10;;
17372;SDS011;8803;48.116;11.590;2023-03-13T08:55:18;2.80;;;1.20;;
17372;SDS011;8803;48.116;11.590;2023-03-13T08:57:22;1.70;;;1.10;;
17372;SDS011;8803;48.116;11.590;2023-03-13T08:59:26;1.63;;;1.40;;
17372;SDS011;8803;48.116;11.590;2023-03-13T09:01:39;1.73;;;1.17;;
17372;SDS011;8803;48.116;11.590;2023-03-13T09:03:43;2.30;;;1.20;;
17372;SDS011;8803;48.116;11.590;2023-03-13T09:05:56;1.87;;;1.30;;
17372;SDS011;8803;48.116;11.590;2023-03-13T09:08:00;1.63;;;1.33;;
17372;SDS011;8803;48.116;11.590;2023-03-13T09:10:07;1.53;;;1.30;;
17372;SDS011;8803;48.116;11.590;2023-03-13T09:12:12;1.33;;;1.20;;
17372;SDS011;8803;48.116;11.590;2023-03-13T09:16:28;1.83;;;1.00;;
17372;SDS011;8803;48.116;11.590;2023-03-13T09:18:33;1.93;;;0.97;;
17372;SDS011;8803;48.116;11.590;2023-03-13T09:20:38;2.07;;;1.10;;
17372;SDS011;8803;48.116;11.590;2023-03-13T09:22:43;1.80;;;1.00;;
17372;SDS011;8803;48.116;11.590;2023-03-13T09:24:47;1.33;;;0.90;;
17372;SDS011;8803;48.116;11.590;2023-03-13T09:26:59;1.10;;;0.70;;
17372;SDS011;8803;48.116;11.590;2023-03-13T09:29:03;0.90;;;0.80;;
17372;SDS011;8803;48.116;11.590;2023-03-13T09:31:08;1.40;;;0.93;;
17372;SDS011;8803;48.116;11.590;2023-03-13T09:33:12;1.90;;;1.07;;
17372;SDS011;8803;48.116;11.590;2023-03-13T09:35:25;1.23;;;0.90;;
17372;SDS011;8803;48.116;11.590;2023-03-13T09:37:29;0.80;;;0.80;;
17372;SDS011;8803;48.116;11.590;2023-03-13T09:39:42;2.30;;;0.80;;
17372;SDS011;8803;48.116;11.590;2023-03-13T09:41:46;2.00;;;0.80;;
17372;SDS011;8803;48.116;11.590;2023-03-13T09:44:02;0.80;;;0.80;;
17372;SDS011;8803;48.116;11.590;2023-03-13T09:46:10;2.40;;;2.00;;
17372;SDS011;8803;48.116;11.590;2023-03-13T09:48:27;2.63;;;2.07;;
17372;SDS011;8803;48.116;11.590;2023-03-13T09:50:33;2.57;;;2.00;;
17372;SDS011;8803;48.116;11.590;2023-03-13T09:52:39;1.67;;;1.47;;
17372;SDS011;8803;48.116;11.590;2023-03-13T09:54:45;1.87;;;1.53;;
17372;SDS011;8803;48.116;11.590;2023-03-13T09:56:54;1.20;;;1.10;;
17372;SDS011;8803;48.116;11.590;2023-03-13T09:59:10;1.40;;;1.23;;
17372;SDS011;8803;48.116;11.590;2023-03-13T10:01:18;1.27;;;0.80;;
17372;SDS011;8803;48.116;11.590;2023-03-13T10:03:26;1.70;;;0.80;;
17372;SDS011;8803;48.116;11.590;2023-03-13T10:07:44;2.10;;;0.70;;
17372;SDS011;8803;48.116;11.590;2023-03-13T10:09:48;1.30;;;0.67;;
17372;SDS011;8803;48.116;11.590;2023-03-13T10:11:55;1.53;;;0.90;;
17372;SDS011;8803;48.116;11.590;2023-03-13T10:14:04;1.13;;;1.00;;
17372;SDS011;8803;48.116;11.590;2023-03-13T10:16:19;1.20;;;0.80;;
17372;SDS011;8803;48.116;11.590;2023-03-13T10:18:24;1.10;;;0.90;;
17372;SDS011;8803;48.116;11.590;2023-03-13T10:20:31;0.50;;;0.50;;
17372;SDS011;8803;48.116;11.590;2023-03-13T10:22:35;0.70;;;0.70;;
17372;SDS011;8803;48.116;11.590;2023-03-13T10:24:43;0.80;;;0.63;;
17372;SDS011;8803;48.116;11.590;2023-03-13T10:26:48;0.93;;;0.60;;
17372;SDS011;8803;48.116;11.590;2023-03-13T10:29:08;0.93;;;0.70;;
17372;SDS011;8803;48.116;11.590;2023-03-13T10:31:16;1.37;;;0.93;;
17372;SDS011;8803;48.116;11.590;2023-03-13T10:33:28;0.80;;;0.60;;
17372;SDS011;8803;48.116;11.590;2023-03-13T10:35:36;0.80;;;0.60;;
17372;SDS011;8803;48.116;11.590;2023-03-13T10:37:50;1.23;;;0.90;;
17372;SDS011;8803;48.116;11.590;2023-03-13T10:40:10;1.17;;;0.90;;
17372;SDS011;8803;48.116;11.590;2023-03-13T10:42:20;1.63;;;1.10;;
17372;SDS011;8803;48.116;11.590;2023-03-13T10:44:31;0.70;;;0.63;;
17372;SDS011;8803;48.116;11.590;2023-03-13T10:46:44;1.97;;;0.80;;
17372;SDS011;8803;48.116;11.590;2023-03-13T10:48:49;0.87;;;0.60;;
17372;SDS011;8803;48.116;11.590;2023-03-13T10:50:56;1.13;;;0.70;;
17372;SDS011;8803;48.116;11.590;2023-03-13T10:53:07;0.93;;;0.80;;
17372;SDS011;8803;48.116;11.590;2023-03-13T10:55:30;0.70;;;0.60;;
17372;SDS011;8803;48.116;11.590;2023-03-13T10:57:49;1.43;;;0.73;;
17372;SDS011;8803;48.116;11.590;2023-03-13T10:59:55;0.63;;;0.63;;
17372;SDS011;8803;48.116;11.590;2023-03-13T11:02:19;2.07;;;0.70;;
17372;SDS011;8803;48.116;11.590;2023-03-13T11:04:32;0.67;;;0.53;;
17372;SDS011;8803;48.116;11.590;2023-03-13T11:08:48;0.60;;;0.57;;
17372;SDS011;8803;48.116;11.590;2023-03-13T11:10:55;0.73;;;0.60;;
17372;SDS011;8803;48.116;11.590;2023-03-13T11:13:01;0.60;;;0.60;;
17372;SDS011;8803;48.116;11.590;2023-03-13T11:17:22;0.63;;;0.60;;
17372;SDS011;8803;48.116;11.590;2023-03-13T11:19:29;2.80;;;1.03;;
17372;SDS011;8803;48.116;11.590;2023-03-13T11:21:59;0.93;;;0.80;;
17372;SDS011;8803;48.116;11.590;2023-03-13T11:24:07;1.53;;;0.60;;
17372;SDS011;8803;48.116;11.590;2023-03-13T11:26:15;1.40;;;0.93;;
17372;SDS011;8803;48.116;11.590;2023-03-13T11:28:28;0.87;;;0.70;;
17372;SDS011;8803;48.116;11.590;2023-03-13T11:30:45;0.70;;;0.70;;
17372;SDS011;8803;48.116;11.590;2023-03-13T11:32:54;0.83;;;0.80;;
17372;SDS011;8803;48.116;11.590;2023-03-13T11:35:00;0.80;;;0.80;;
17372;SDS011;8803;48.116;11.590;2023-03-13T11:39:31;1.30;;;1.10;;
17372;SDS011;8803;48.116;11.590;2023-03-13T11:41:46;1.80;;;1.50;;
17372;SDS011;8803;48.116;11.590;2023-03-13T11:46:12;1.53;;;0.60;;
17372;SDS011;8803;48.116;11.590;2023-03-13T11:48:51;1.33;;;0.80;;
17372;SDS011;8803;48.116;11.590;2023-03-13T11:51:16;2.90;;;0.50;;
17372;SDS011;8803;48.116;11.590;2023-03-13T11:53:41;0.93;;;0.60;;
17372;SDS011;8803;48.116;11.590;2023-03-13T11:56:07;0.40;;;0.40;;
17372;SDS011;8803;48.116;11.590;2023-03-13T12:01:11;1.43;;;0.70;;
17372;SDS011;8803;48.116;11.590;2023-03-13T12:03:29;0.80;;;0.60;;
17372;SDS011;8803;48.116;11.590;2023-03-13T12:05:36;1.97;;;0.60;;
17372;SDS011;8803;48.116;11.590;2023-03-13T12:07:52;0.80;;;0.50;;
17372;SDS011;8803;48.116;11.590;2023-03-13T12:09:59;0.40;;;0.40;;
17372;SDS011;8803;48.116;11.590;2023-03-13T12:12:10;0.73;;;0.60;;
17372;SDS011;8803;48.116;11.590;2023-03-13T12:14:26;0.73;;;0.60;;
17372;SDS011;8803;48.116;11.590;2023-03-13T12:16:37;2.17;;;0.70;;
17372;SDS011;8803;48.116;11.590;2023-03-13T12:18:51;1.47;;;0.77;;
17372;SDS011;8803;48.116;11.590;2023-03-13T12:20:57;1.80;;;0.60;;
17372;SDS011;8803;48.116;11.590;2023-03-13T12:25:20;1.10;;;0.97;;
17372;SDS011;8803;48.116;11.590;2023-03-13T12:27:25;0.67;;;0.60;;
17372;SDS011;8803;48.116;11.590;2023-03-13T12:29:42;1.53;;;0.60;;
17372;SDS011;8803;48.116;11.590;2023-03-13T12:31:49;1.10;;;0.90;;
17372;SDS011;8803;48.116;11.590;2023-03-13T12:33:57;1.00;;;0.77;;
17372;SDS011;8803;48.116;11.590;2023-03-13T12:36:11;1.57;;;0.70;;
17372;SDS011;8803;48.116;11.590;2023-03-13T12:38:19;0.90;;;0.90;;
17372;SDS011;8803;48.116;11.590;2023-03-13T12:40:37;1.20;;;0.80;;
17372;SDS011;8803;48.116;11.590;2023-03-13T12:42:54;1.57;;;0.90;;
17372;SDS011;8803;48.116;11.590;2023-03-13T12:44:58;3.43;;;0.87;;
17372;SDS011;8803;48.116;11.590;2023-03-13T12:47:15;1.40;;;0.80;;
17372;SDS011;8803;48.116;11.590;2023-03-13T12:52:13;1.37;;;0.70;;
17372;SDS011;8803;48.116;11.590;2023-03-13T12:57:14;1.63;;;1.00;;
17372;SDS011;8803;48.116;11.590;2023-03-13T12:59:31;2.57;;;1.10;;
17372;SDS011;8803;48.116;11.590;2023-03-13T13:01:39;1.47;;;0.80;;
17372;SDS011;8803;48.116;11.590;2023-03-13T13:03:54;1.30;;;0.90;;
17372;SDS011;8803;48.116;11.590;2023-03-13T13:06:01;2.03;;;0.93;;
17372;SDS011;8803;48.116;11.590;2023-03-13T13:08:22;4.13;;;3.00;;
17372;SDS011;8803;48.116;11.590;2023-03-13T13:10:27;1.80;;;1.70;;
17372;SDS011;8803;48.116;11.590;2023-03-13T13:12:31;2.40;;;1.20;;
17372;SDS011;8803;48.116;11.590;2023-03-13T13:14:57;1.47;;;1.03;;
17372;SDS011;8803;48.116;11.590;2023-03-13T13:17:12;1.00;;;0.80;;
17372;SDS011;8803;48.116;11.590;2023-03-13T13:19:44;1.00;;;0.90;;
17372;SDS011;8803;48.116;11.590;2023-03-13T13:21:52;2.00;;;0.77;;
17372;SDS011;8803;48.116;11.590;2023-03-13T13:26:51;1.33;;;1.00;;
17372;SDS011;8803;48.116;11.590;2023-03-13T13:28:55;1.13;;;1.00;;
17372;SDS011;8803;48.116;11.590;2023-03-13T13:31:01;1.30;;;0.90;;
17372;SDS011;8803;48.116;11.590;2023-03-13T13:33:36;2.60;;;0.90;;
17372;SDS011;8803;48.116;11.590;2023-03-13T13:35:41;1.43;;;0.80;;
17372;SDS011;8803;48.116;11.590;2023-03-13T13:40:42;1.47;;;1.00;;
17372;SDS011;8803;48.116;11.590;2023-03-13T13:43:17;1.33;;;0.80;;
17372;SDS011;8803;48.116;11.590;2023-03-13T13:45:25;1.50;;;0.90;;